world map with HTAR marked

HTAR - Airport

This information may not be accurate or current and is not valid for navigation or flight planning. No warranty of fitness for any purpose is made or implied.

flag of Tanzania

Donate via PayPal

Additional information is available on the NEW Great Circle Mapper

Location
City:  Arusha, Arusha, Tanzania
Name:Arusha Airport
ICAO / IATA:HTAR / ARK

Details
Type:Airport (Aerodrome, Airfield)
Latitude:3°22'04"S (-3.367793)
Longitude:36°38'00"E (36.633333)
Datum:WGS 1984
Elevation:4550 ft (1387 m)
Runways:1
Longest:5377 × 105 ft (1639 × 32 m)

Time
Timezone:UTC+3 (DST+5)
Local Time:

Weather
METAR:HTAR  041300Z 07007KT 9999 BKN034 FEW036CB 30/13 Q1013 NOSIG
TAF:HTAR  041100Z 0412/0512 10004KT 9999 SCT030 BECMG 0412/0415 BKN032 FEW034CB

Related Locations
Nearby:
Farthest:NHV: 11568 mi / 18616 km
Nuku Hiva, Marquesas Islands, PF

Find:

   beyond  
but within

Other Information
Maps:
Sources:

  


 


Great Circle Mapper   Great Circle Mapper
Great Circle Mapper FAQ   Great Circle Mapper FAQ
  Karl's Home Page
KLSē   KLSē Home
   GC on Facebook
Airlines of the World   Airlines of the World
Donate via PayPal


Copyright © 2004-2019, Karl L. Swartz. All rights reserved.
All trademarks mentioned herein belong to their respective owners.

Please see credits for attribution and copyright information.

Karl Swartz <karl@kls2.com>
  Powered by FreeBSD
Valid HTML 4.01!
Labeled with ICRA
hCard Microformat
Geo Microformat